LPMR Airport Information

Runway Information
Runway 01 Length 9816 ft width 148 ft
Elevation 173 ft Threshold 886 ft Heading 2
Runway 19 Length 9816 ft Width 148 ft
Elevation 172 ft Threshold 863 ft Heading 182
Airport Frequencies
Type APP Name APP Frequency 121.7 MHZ
Type GND Name GND Frequency 119.725 MHZ
Type TWR Name TWR Frequency 122.1 MHZ
Airport Navaids
Type NDB Name Monte Real Frequency 336 KHZ
Type TACAN Name Monte Real Frequency 109600 KHZ
Airport Weather Information & NOTAM
ADDS - METARS form results

(1244 UTC 23 February 2019)
Data provider http://aviationweather.gov/metar/data/
 
METAR text: LPMR 231200Z 14005KT 110V170 CAVOK 19/10 Q1030
Conditions at: LPMR (MONTE REAL(POR-A, PT) observed 1200 UTC 23 February 2019
Temperature: 19.0°C (66°F)
Dewpoint: 10.0°C (50°F) [RH = 56%]
Pressure (altimeter): 30.41 inches Hg (1030.0 mb)
Winds: from the SE (140 degrees) at 6 MPH (5 knots; 2.6 m/s)
Visibility: 6 or more miles (10+ km)
Ceiling: ceiling and visibility are OK
Clouds: unknown
Weather: no significant weather observed at this time

Forecast for: LPMR (MONTE REAL(POR-A, PT)
Text: TAF LPMR 231102Z 2312/2412 VRB02KT CAVOK
Forecast period: 1200 UTC 23 February 2019 to 1200 UTC 24 February 2019
Forecast type: FROM: standard forecast or significant change
Winds: variable direction winds at 2 MPH (2 knots; 1.0 m/s)
Visibility: 6 or more miles 10+ km)
Ceiling: unknown
Clouds: missing
Weather: NSW  (no significant weather)